LXGB/GIB METAR and TAF weather

Enter ICAO airport designator
Station Type Date Time Source
LXGB METAR 2018/12/10 01:50 UTC NOAA

LXGB 100150Z AUTO 23002KT 6000 // BKN006/// 13/12 Q1027


Station Type Date Time Source
LXGB Decoded METAR 2018/12/10 01:50 UTC NOAA

Gibraltar, Gibraltar (LXGB) 36-09N 005-21W 0M
Dec 09, 2018 - 08:50 PM EST / 2018.12.10 0150 UTC
Wind: from the SW (230 degrees) at 2 MPH (2 KT):0
Visibility: 3 mile(s):0
Sky conditions: mostly cloudy
Temperature: 55 F (13 C)
Dew Point: 53 F (12 C)
Relative Humidity: 93%
Pressure (altimeter): 30.33 in. Hg (1027 hPa)
ob: LXGB 100150Z AUTO 23002KT 6000 // BKN006/// 13/12 Q1027
cycle: 2

Station Type Date Time Source
LXGB TAF 2018/08/03 18:09 UTC NOAA

TAF TAF LXGB 032004Z 0318/0422 CNL


Example: see airport list